createdAt,value
2017-09-10T00:00:31.730Z,8.93
2017-09-10T00:02:59.536Z,9.73
2017-09-10T00:05:27.257Z,9.10
2017-09-10T00:07:54.993Z,8.47
2017-09-10T00:10:22.755Z,8.93
2017-09-10T00:12:50.556Z,10.80
2017-09-10T00:15:18.289Z,8.80
2017-09-10T00:17:46.505Z,8.43
2017-09-10T00:20:14.449Z,9.73
2017-09-10T00:22:42.214Z,10.10
2017-09-10T00:25:10.020Z,10.43
2017-09-10T00:27:37.849Z,9.40
2017-09-10T00:30:05.680Z,9.80
2017-09-10T00:32:33.874Z,8.57
2017-09-10T00:35:03.248Z,9.20
2017-09-10T00:37:31.041Z,8.93
2017-09-10T00:39:58.783Z,41.07
2017-09-10T00:42:26.743Z,9.27
2017-09-10T00:44:54.481Z,8.90
2017-09-10T00:47:22.260Z,7.80
2017-09-10T00:49:50.058Z,8.23
2017-09-10T00:52:17.848Z,8.13
2017-09-10T00:54:45.752Z,7.67
2017-09-10T00:57:14.191Z,6.87
2017-09-10T00:59:41.911Z,8.77
2017-09-10T01:02:09.802Z,7.87
2017-09-10T01:04:37.533Z,8.83
2017-09-10T01:07:05.229Z,7.80
2017-09-10T01:09:33.021Z,8.07
2017-09-10T01:12:00.810Z,8.10
2017-09-10T01:14:28.636Z,8.60
2017-09-10T01:16:56.441Z,10.20
2017-09-10T01:19:24.308Z,7.77
2017-09-10T01:21:52.147Z,6.90
2017-09-10T01:24:19.983Z,6.40
2017-09-10T01:26:47.766Z,8.17
2017-09-10T01:29:15.501Z,9.00
2017-09-10T01:31:43.261Z,9.37
2017-09-10T01:34:10.957Z,10.30
2017-09-10T01:36:38.675Z,8.97
2017-09-10T01:39:06.586Z,8.13
2017-09-10T01:41:34.374Z,8.60
2017-09-10T01:44:02.141Z,8.60
2017-09-10T01:46:29.943Z,7.07
2017-09-10T01:48:57.669Z,7.80
2017-09-10T01:51:25.446Z,9.00
2017-09-10T01:53:53.675Z,8.57
2017-09-10T01:56:22.176Z,8.10
2017-09-10T01:58:49.863Z,7.90
2017-09-10T02:01:18.686Z,7.67
2017-09-10T02:03:46.411Z,7.13
2017-09-10T02:06:15.010Z,7.90
2017-09-10T02:08:43.883Z,7.07
2017-09-10T02:13:46.279Z,8.40
2017-09-10T02:16:14.030Z,6.67
2017-09-10T02:18:45.555Z,7.40
2017-09-10T02:21:13.308Z,7.90
2017-09-10T02:23:41.116Z,6.37
2017-09-10T02:26:10.479Z,7.53
2017-09-10T02:28:41.036Z,6.13
2017-09-10T02:31:08.815Z,6.17
2017-09-10T02:33:37.837Z,6.73
2017-09-10T02:36:05.630Z,7.07
2017-09-10T02:38:33.488Z,7.10
2017-09-10T02:41:01.244Z,6.50
2017-09-10T02:43:30.256Z,6.13
2017-09-10T02:45:58.951Z,7.00
2017-09-10T02:48:26.676Z,5.53
2017-09-10T02:50:54.459Z,6.30
2017-09-10T02:53:22.937Z,4.63
2017-09-10T02:55:55.259Z,4.20
2017-09-10T02:58:23.037Z,5.67
2017-09-10T03:00:50.742Z,5.53
2017-09-10T03:03:20.158Z,6.77
2017-09-10T03:05:48.760Z,6.87
2017-09-10T03:08:17.266Z,7.30
2017-09-10T03:10:45.330Z,7.57
2017-09-10T03:13:13.562Z,6.50
2017-09-10T03:15:42.028Z,6.10
2017-09-10T03:18:09.879Z,5.40
2017-09-10T03:20:37.628Z,5.23
2017-09-10T03:23:05.437Z,5.77
2017-09-10T03:25:33.369Z,5.90
2017-09-10T03:28:01.120Z,6.30
2017-09-10T03:30:28.884Z,4.70
2017-09-10T03:32:56.664Z,5.67
2017-09-10T03:35:24.457Z,5.30
2017-09-10T03:37:52.298Z,5.80
2017-09-10T03:40:20.082Z,5.97
2017-09-10T03:42:47.864Z,5.77
2017-09-10T03:45:15.731Z,4.33
2017-09-10T03:47:43.479Z,6.10
2017-09-10T03:50:11.385Z,5.50
2017-09-10T03:52:39.156Z,4.43
2017-09-10T03:55:07.184Z,5.43
2017-09-10T03:57:35.355Z,4.67
2017-09-10T04:00:03.093Z,4.03
2017-09-10T04:02:34.496Z,4.90
2017-09-10T04:05:02.290Z,5.63
2017-09-10T04:07:32.109Z,4.30
2017-09-10T04:09:59.961Z,4.00
2017-09-10T04:12:31.900Z,4.43
2017-09-10T04:14:59.979Z,4.37
2017-09-10T04:17:28.628Z,5.30
2017-09-10T04:19:59.027Z,4.60
2017-09-10T04:22:27.657Z,4.20
2017-09-10T04:24:56.028Z,4.43
2017-09-10T04:27:23.895Z,4.07
2017-09-10T04:29:52.486Z,4.17
2017-09-10T04:32:20.286Z,5.03
2017-09-10T04:34:48.178Z,4.90
2017-09-10T04:37:16.680Z,5.10
2017-09-10T04:39:44.508Z,4.87
2017-09-10T04:42:13.530Z,6.30
2017-09-10T04:44:41.318Z,5.50
2017-09-10T04:47:15.955Z,4.70
2017-09-10T04:49:44.116Z,4.83
2017-09-10T04:52:11.985Z,4.97
2017-09-10T04:54:39.840Z,4.67
2017-09-10T04:57:07.631Z,4.40
2017-09-10T04:59:35.584Z,5.60
2017-09-10T05:02:03.377Z,5.63
2017-09-10T05:04:31.186Z,5.17
2017-09-10T05:06:59.395Z,5.00
2017-09-10T05:09:27.106Z,5.57
2017-09-10T05:11:54.901Z,5.40
2017-09-10T05:14:22.648Z,5.47
2017-09-10T05:16:50.461Z,4.73
2017-09-10T05:19:18.206Z,6.07
2017-09-10T05:21:45.971Z,5.60
2017-09-10T05:24:13.803Z,5.60
2017-09-10T05:26:41.514Z,5.60
2017-09-10T05:29:09.219Z,5.60
2017-09-10T05:31:37.914Z,5.60
2017-09-10T05:34:06.346Z,6.00
2017-09-10T05:36:34.121Z,4.67
2017-09-10T05:39:02.264Z,7.67
2017-09-10T05:41:30.864Z,9.20
2017-09-10T05:43:58.614Z,8.30
2017-09-10T05:46:27.217Z,7.57
2017-09-10T05:48:54.953Z,6.93
2017-09-10T05:51:22.783Z,6.00
2017-09-10T05:53:52.229Z,6.00
2017-09-10T05:56:20.206Z,4.67
2017-09-10T05:58:47.922Z,5.83
2017-09-10T06:01:15.624Z,7.60
2017-09-10T06:03:43.407Z,4.47
2017-09-10T06:06:11.176Z,5.90
2017-09-10T06:08:38.965Z,5.67
2017-09-10T06:11:06.732Z,5.93
2017-09-10T06:13:34.458Z,4.53
2017-09-10T06:16:03.082Z,5.33
2017-09-10T06:18:32.187Z,5.27
2017-09-10T06:20:59.990Z,4.87
2017-09-10T06:23:27.913Z,4.20
2017-09-10T06:25:55.631Z,4.70
2017-09-10T06:28:24.482Z,5.00
2017-09-10T06:30:53.319Z,4.20
2017-09-10T06:33:21.126Z,5.53
2017-09-10T06:35:49.371Z,5.07
2017-09-10T06:38:17.655Z,5.00
2017-09-10T06:40:45.380Z,4.43
2017-09-10T06:43:13.183Z,5.20
2017-09-10T06:45:40.999Z,5.30
2017-09-10T06:48:09.897Z,5.43
2017-09-10T06:50:37.662Z,4.47
2017-09-10T06:53:05.473Z,4.13
2017-09-10T06:55:33.567Z,4.03
2017-09-10T06:58:01.744Z,3.90
2017-09-10T07:00:29.546Z,4.60
2017-09-10T07:02:57.377Z,5.07
2017-09-10T07:05:26.213Z,5.20
2017-09-10T07:07:53.963Z,4.97
2017-09-10T07:10:22.949Z,4.83
2017-09-10T07:12:52.345Z,5.03
2017-09-10T07:15:20.088Z,4.53
2017-09-10T07:17:47.912Z,4.17
2017-09-10T07:20:16.711Z,4.80
2017-09-10T07:22:44.441Z,4.13
2017-09-10T07:25:13.034Z,5.00
2017-09-10T07:27:40.769Z,4.57
2017-09-10T07:30:08.500Z,3.70
2017-09-10T07:32:36.253Z,3.73
2017-09-10T07:35:03.981Z,4.50
2017-09-10T07:37:31.743Z,5.03
2017-09-10T07:39:59.862Z,4.37
2017-09-10T07:42:27.782Z,3.50
2017-09-10T07:44:55.715Z,3.93
2017-09-10T07:47:23.437Z,4.30
2017-09-10T07:49:51.529Z,4.40
2017-09-10T07:52:21.237Z,3.20
2017-09-10T07:54:49.067Z,4.13
2017-09-10T07:57:16.958Z,3.30
2017-09-10T07:59:45.458Z,3.20
2017-09-10T08:02:13.196Z,3.73
2017-09-10T08:04:40.926Z,3.80
2017-09-10T08:07:08.677Z,2.70
2017-09-10T08:09:36.611Z,2.97
2017-09-10T08:12:05.404Z,2.93
2017-09-10T08:14:33.239Z,3.50
2017-09-10T08:17:02.205Z,4.07
2017-09-10T08:19:30.044Z,3.43
2017-09-10T08:21:57.849Z,4.30
2017-09-10T08:24:25.649Z,5.10
2017-09-10T08:26:53.985Z,7.00
2017-09-10T08:29:21.674Z,5.77
2017-09-10T08:31:49.396Z,4.33
2017-09-10T08:34:17.202Z,4.03
2017-09-10T08:36:45.064Z,4.50
2017-09-10T08:39:12.953Z,3.13
2017-09-10T08:41:40.667Z,3.77
2017-09-10T08:44:08.413Z,3.50
2017-09-10T08:46:37.388Z,3.77
2017-09-10T08:49:05.081Z,3.00
2017-09-10T08:51:32.817Z,2.77
2017-09-10T08:54:00.540Z,4.17
2017-09-10T08:56:28.348Z,3.40
2017-09-10T08:58:57.198Z,3.20
2017-09-10T09:01:25.256Z,3.70
2017-09-10T09:03:52.960Z,3.80
2017-09-10T09:06:20.734Z,3.63
2017-09-10T09:08:48.486Z,2.90
2017-09-10T09:11:16.305Z,17.53
2017-09-10T09:13:44.136Z,4.30
2017-09-10T09:16:12.828Z,4.00
2017-09-10T09:18:40.578Z,1.80
2017-09-10T09:24:48.170Z,1.60
2017-09-10T09:27:16.850Z,1.83
2017-09-10T09:29:44.729Z,1.70
2017-09-10T09:32:12.514Z,1.97
2017-09-10T09:34:40.232Z,2.50
2017-09-10T09:37:08.107Z,1.63
2017-09-10T09:39:36.837Z,1.53
2017-09-10T09:42:06.638Z,1.77
2017-09-10T09:44:48.016Z,2.07
2017-09-10T09:47:17.595Z,1.80
2017-09-10T09:49:48.102Z,1.87
2017-09-10T09:52:15.956Z,2.13
2017-09-10T09:54:44.421Z,1.70
2017-09-10T09:57:12.783Z,2.03
2017-09-10T09:59:41.901Z,2.37
2017-09-10T10:02:09.592Z,2.80
2017-09-10T10:04:38.523Z,1.70
2017-09-10T10:07:06.308Z,1.53
2017-09-10T10:09:34.011Z,0.90
2017-09-10T10:12:02.197Z,1.30
2017-09-10T10:14:30.048Z,7.10
2017-09-10T10:16:57.753Z,2.27
2017-09-10T10:19:25.643Z,2.10
2017-09-10T10:21:53.435Z,2.00
2017-09-10T10:24:21.212Z,1.67
2017-09-10T10:26:48.954Z,1.23
2017-09-10T10:29:16.675Z,1.03
2017-09-10T10:31:44.459Z,0.90
2017-09-10T10:34:12.179Z,1.23
2017-09-10T10:36:39.963Z,4.03
2017-09-10T10:39:07.728Z,1.40
2017-09-10T10:41:35.430Z,1.27
2017-09-10T10:44:03.234Z,1.83
2017-09-10T10:46:30.964Z,2.03
2017-09-10T10:48:58.754Z,1.47
2017-09-10T10:51:27.154Z,1.40
2017-09-10T10:54:00.728Z,1.30
2017-09-10T10:56:30.148Z,1.87
2017-09-10T10:58:57.864Z,2.10
2017-09-10T11:01:25.596Z,1.20
2017-09-10T11:03:53.361Z,1.00
2017-09-10T11:06:21.075Z,2.07
2017-09-10T11:08:48.834Z,1.60
2017-09-10T11:11:16.579Z,1.77
2017-09-10T11:13:44.396Z,1.40
2017-09-10T11:16:12.198Z,1.53
2017-09-10T11:18:39.958Z,1.93
2017-09-10T11:21:07.706Z,1.10
2017-09-10T11:23:35.552Z,0.93
2017-09-10T11:26:03.362Z,1.23
2017-09-10T11:28:31.072Z,1.30
2017-09-10T11:30:58.872Z,1.53
2017-09-10T11:33:26.688Z,0.80
2017-09-10T11:35:54.455Z,1.33
2017-09-10T11:38:22.236Z,1.37
2017-09-10T11:40:50.041Z,1.40
2017-09-10T11:43:17.899Z,0.97
2017-09-10T11:45:45.704Z,1.57
2017-09-10T11:48:13.836Z,0.83
2017-09-10T11:50:41.617Z,1.70
2017-09-10T11:53:09.595Z,0.90
2017-09-10T11:55:37.349Z,0.90
2017-09-10T11:58:05.278Z,0.77
2017-09-10T12:00:34.124Z,1.07
2017-09-10T12:03:01.915Z,0.70
2017-09-10T12:05:30.245Z,0.63
2017-09-10T12:07:58.011Z,0.90
2017-09-10T12:10:25.777Z,0.70
2017-09-10T12:12:53.543Z,0.70
2017-09-10T12:15:22.261Z,0.83
2017-09-10T12:17:50.252Z,1.10
2017-09-10T12:20:18.520Z,1.10
2017-09-10T12:22:46.344Z,3.10
2017-09-10T12:25:14.121Z,2.00
2017-09-10T12:27:41.980Z,1.47
2017-09-10T12:30:10.039Z,1.10
2017-09-10T12:32:38.477Z,1.20
2017-09-10T12:35:07.464Z,1.13
2017-09-10T12:37:35.247Z,0.90
2017-09-10T12:40:04.042Z,0.90
2017-09-10T12:42:31.948Z,1.30
2017-09-10T12:44:59.731Z,0.90
2017-09-10T12:47:27.493Z,0.80
2017-09-10T12:49:55.265Z,1.00
2017-09-10T12:52:23.086Z,1.17
2017-09-10T12:54:52.454Z,1.00
2017-09-10T12:57:20.523Z,0.90
2017-09-10T12:59:48.309Z,1.00
2017-09-10T13:02:16.369Z,1.13
2017-09-10T13:04:44.644Z,1.53
2017-09-10T13:07:13.465Z,1.10
2017-09-10T13:09:42.894Z,1.17
2017-09-10T13:12:10.857Z,1.33
2017-09-10T13:14:39.815Z,2.23
2017-09-10T13:17:07.671Z,1.83
2017-09-10T13:19:35.363Z,2.30
2017-09-10T13:22:03.265Z,3.57
2017-09-10T13:24:31.144Z,5.63
2017-09-10T13:26:58.920Z,2.17
2017-09-10T13:29:27.434Z,1.10
2017-09-10T13:31:55.201Z,3.60
2017-09-10T13:34:22.987Z,1.60
2017-09-10T13:36:50.763Z,2.80
2017-09-10T13:39:18.523Z,1.50
2017-09-10T13:41:46.392Z,1.80
2017-09-10T13:44:14.255Z,1.37
2017-09-10T13:46:42.015Z,1.03
2017-09-10T13:49:09.835Z,1.20
2017-09-10T13:51:37.640Z,1.67
2017-09-10T13:54:05.908Z,1.10
2017-09-10T13:56:33.735Z,0.90
2017-09-10T13:59:02.420Z,0.90
2017-09-10T14:01:31.483Z,0.87
2017-09-10T14:03:59.299Z,1.00
2017-09-10T14:06:27.060Z,0.67
2017-09-10T14:08:55.079Z,0.73
2017-09-10T14:11:23.001Z,3.30
2017-09-10T14:13:50.826Z,1.77
2017-09-10T14:16:19.000Z,1.30
2017-09-10T14:18:47.785Z,2.07
2017-09-10T14:21:15.580Z,2.33
2017-09-10T14:23:43.420Z,2.27
2017-09-10T14:26:11.214Z,3.77
2017-09-10T14:28:39.009Z,2.17
2017-09-10T14:31:07.012Z,1.23
2017-09-10T14:33:34.955Z,2.77
2017-09-10T14:36:03.528Z,1.43
2017-09-10T14:38:31.643Z,1.13
2017-09-10T14:40:59.450Z,0.60
2017-09-10T14:43:27.320Z,0.80
2017-09-10T14:45:55.523Z,0.80
2017-09-10T14:48:24.485Z,0.50
2017-09-10T14:50:52.608Z,0.60
2017-09-10T14:53:20.848Z,0.60
2017-09-10T14:55:49.590Z,0.70
2017-09-10T14:58:18.636Z,0.70
2017-09-10T15:00:46.628Z,1.87
2017-09-10T15:03:18.129Z,3.43
2017-09-10T15:05:46.050Z,2.03
2017-09-10T15:08:13.930Z,1.30
2017-09-10T15:10:41.854Z,2.10
2017-09-10T15:13:09.814Z,1.00
2017-09-10T15:15:39.061Z,1.03
2017-09-10T15:18:06.975Z,1.00
2017-09-10T15:20:36.480Z,0.73
2017-09-10T15:23:06.209Z,1.20
2017-09-10T15:25:34.347Z,1.30
2017-09-10T15:28:03.870Z,0.90
2017-09-10T15:30:31.810Z,0.60
2017-09-10T15:32:59.926Z,1.13
2017-09-10T15:35:28.437Z,1.70
2017-09-10T15:37:56.266Z,1.70
2017-09-10T15:40:24.123Z,1.80
2017-09-10T15:42:54.045Z,1.60
2017-09-10T15:45:23.992Z,1.70
2017-09-10T15:47:51.792Z,2.30
2017-09-10T15:50:19.741Z,1.20
2017-09-10T15:52:48.210Z,1.50
2017-09-10T15:55:16.853Z,1.47
2017-09-10T15:57:47.792Z,1.77
2017-09-10T16:00:15.776Z,1.60
2017-09-10T16:02:44.863Z,1.03
2017-09-10T16:05:12.623Z,1.43
2017-09-10T16:07:40.605Z,1.60
2017-09-10T16:10:10.057Z,1.90
2017-09-10T16:12:38.277Z,2.03
2017-09-10T16:15:06.801Z,1.57
2017-09-10T16:17:35.537Z,1.13
2017-09-10T16:20:04.198Z,0.70
2017-09-10T16:22:33.460Z,0.60
2017-09-10T16:25:01.666Z,0.50
2017-09-10T16:27:30.186Z,0.80
2017-09-10T16:29:58.885Z,0.90
2017-09-10T16:32:26.864Z,0.90
2017-09-10T16:34:55.528Z,0.70
2017-09-10T16:37:23.402Z,0.70
2017-09-10T16:39:51.224Z,0.93
2017-09-10T16:42:20.109Z,0.67
2017-09-10T16:44:48.398Z,0.80
2017-09-10T16:47:16.283Z,1.53
2017-09-10T16:49:44.189Z,0.73
2017-09-10T16:52:12.756Z,0.60
2017-09-10T16:54:40.741Z,0.50
2017-09-10T16:57:09.237Z,0.70
2017-09-10T16:59:37.119Z,1.00
2017-09-10T17:02:05.200Z,1.00
2017-09-10T17:04:33.245Z,0.80
2017-09-10T17:07:01.093Z,1.10
2017-09-10T17:09:28.801Z,0.70
2017-09-10T17:11:56.576Z,0.70
2017-09-10T17:14:24.574Z,0.60
2017-09-10T17:16:52.996Z,0.57
2017-09-10T17:19:21.542Z,0.60
2017-09-10T17:21:51.761Z,0.97
2017-09-10T17:24:19.638Z,1.90
2017-09-10T17:26:47.638Z,1.77
2017-09-10T17:29:16.121Z,1.37
2017-09-10T17:31:44.334Z,1.17
2017-09-10T17:34:12.257Z,1.27
2017-09-10T17:36:40.162Z,1.30
2017-09-10T17:39:07.944Z,1.20
2017-09-10T17:41:36.478Z,1.57
2017-09-10T17:44:04.419Z,1.43
2017-09-10T17:46:32.457Z,1.27
2017-09-10T17:49:00.411Z,1.80
2017-09-10T17:51:28.182Z,2.17
2017-09-10T17:53:56.078Z,1.43
2017-09-10T17:56:25.037Z,1.20
2017-09-10T17:58:53.006Z,0.60
2017-09-10T18:01:21.130Z,1.10
2017-09-10T18:03:48.964Z,0.60
2017-09-10T18:06:17.399Z,1.00
2017-09-10T18:08:45.601Z,0.60
2017-09-10T18:11:15.164Z,0.90
2017-09-10T18:13:44.154Z,0.90
2017-09-10T18:16:12.568Z,1.43
2017-09-10T18:18:40.943Z,1.73
2017-09-10T18:21:09.299Z,1.80
2017-09-10T18:23:37.434Z,1.87
2017-09-10T18:26:05.685Z,1.30
2017-09-10T18:28:33.940Z,1.13
2017-09-10T18:31:02.107Z,1.57
2017-09-10T18:33:29.919Z,0.73
2017-09-10T18:35:57.695Z,0.80
2017-09-10T18:38:25.576Z,0.67
2017-09-10T18:40:53.697Z,0.73
2017-09-10T18:43:21.514Z,1.03
2017-09-10T18:45:49.654Z,1.00
2017-09-10T18:48:17.446Z,1.10
2017-09-10T18:50:46.017Z,0.80
2017-09-10T18:53:13.968Z,0.67
2017-09-10T18:55:42.397Z,0.70
2017-09-10T18:58:11.290Z,2.73
2017-09-10T19:00:39.240Z,0.60
2017-09-10T19:03:07.166Z,0.60
2017-09-10T19:05:35.140Z,0.63
2017-09-10T19:08:03.998Z,0.73
2017-09-10T19:10:32.140Z,1.30
2017-09-10T19:13:00.611Z,1.07
2017-09-10T19:15:28.412Z,1.93
2017-09-10T19:17:56.496Z,1.90
2017-09-10T19:20:24.513Z,1.60
2017-09-10T19:22:52.297Z,1.93
2017-09-10T19:25:20.187Z,1.50
2017-09-10T19:27:48.018Z,1.40
2017-09-10T19:30:16.650Z,1.00
2017-09-10T19:32:45.059Z,0.77
2017-09-10T19:35:12.806Z,0.83
2017-09-10T19:37:42.151Z,0.70
2017-09-10T19:40:10.263Z,0.80
2017-09-10T19:42:38.044Z,0.90
2017-09-10T19:45:05.889Z,1.00
2017-09-10T19:47:33.956Z,1.27
2017-09-10T19:50:01.813Z,0.80
2017-09-10T19:52:30.107Z,1.20
2017-09-10T19:54:57.853Z,1.23
